Time;durP1;ratioP1;P1;durP2;ratioP2;P2;SDS_P1;SDS_P2;PMS_P1;PMS_P2;Temp;Humidity;BMP_temperature;BMP_pressure;BME280_temperature;BME280_humidity;BME280_pressure;Samples;Min_cycle;Max_cycle;Signal;HPM_P1;HPM_P2
2024/01/16 00:00:05;;;;;;;23.10;12.90;;;;;;;7.86;90.84;98840.89;108116;1288;22004;-63
2024/01/16 00:02:31;;;;;;;22.30;13.00;;;;;;;7.85;90.82;98846.17;108192;1275;22003;-63
2024/01/16 00:04:56;;;;;;;21.70;12.30;;;;;;;7.86;90.70;98849.98;108136;1286;21991;-64
2024/01/16 00:07:22;;;;;;;20.80;12.90;;;;;;;7.88;90.78;98852.56;108254;1287;21986;-62
2024/01/16 00:09:47;;;;;;;20.50;11.50;;;;;;;7.90;90.53;98852.16;108174;1280;21989;-64
2024/01/16 00:12:13;;;;;;;22.10;11.60;;;;;;;7.92;90.43;98845.30;108212;1287;21998;-64
2024/01/16 00:14:39;;;;;;;21.90;11.40;;;;;;;7.93;90.22;98831.46;108187;1287;22004;-64
2024/01/16 00:17:05;;;;;;;20.60;12.50;;;;;;;7.96;90.10;98820.56;108095;1280;22047;-65
2024/01/16 00:19:30;;;;;;;22.00;12.80;;;;;;;7.97;90.00;98818.60;108184;1287;22457;-64
2024/01/16 00:21:56;;;;;;;20.50;12.90;;;;;;;7.99;89.85;98822.40;108148;1287;22005;-64
2024/01/16 00:24:25;;;;;;;23.50;13.00;;;;;;;7.99;89.64;98809.81;108110;1277;21989;-64
2024/01/16 00:26:50;;;;;;;19.60;13.10;;;;;;;8.00;89.52;98805.77;108187;1287;21985;-64
2024/01/16 00:29:16;;;;;;;21.00;13.60;;;;;;;7.99;89.23;98809.64;108111;1287;22453;-65
2024/01/16 00:31:42;;;;;;;20.60;12.50;;;;;;;7.98;89.07;98803.20;108087;1280;21979;-65
2024/01/16 00:34:08;;;;;;;19.60;11.80;;;;;;;7.96;88.71;98799.43;108161;1280;21996;-64
2024/01/16 00:36:33;;;;;;;16.90;11.30;;;;;;;7.96;88.78;98805.55;108134;1286;21994;-62
2024/01/16 00:38:59;;;;;;;20.10;12.30;;;;;;;7.95;89.00;98820.06;108182;1277;22000;-64
2024/01/16 00:41:24;;;;;;;18.10;11.40;;;;;;;7.93;89.12;98835.34;108103;1287;21987;-63
2024/01/16 00:43:50;;;;;;;19.70;12.30;;;;;;;7.90;89.07;98838.90;108128;1287;22008;-62
2024/01/16 00:46:15;;;;;;;21.00;11.70;;;;;;;7.89;89.30;98837.86;108143;1287;21990;-62
2024/01/16 00:48:41;;;;;;;22.50;13.40;;;;;;;7.91;89.05;98826.45;108130;1287;21988;-64
2024/01/16 00:51:06;;;;;;;19.30;12.10;;;;;;;7.89;88.77;98820.39;108244;1277;22005;-65
2024/01/16 00:53:32;;;;;;;22.30;12.50;;;;;;;7.88;88.90;98810.63;108132;1280;21984;-65
2024/01/16 00:55:57;;;;;;;21.90;12.60;;;;;;;7.88;88.96;98807.85;108255;1287;22027;-63
2024/01/16 00:58:23;;;;;;;21.90;13.20;;;;;;;7.87;88.96;98810.84;108135;1283;22029;-64
2024/01/16 01:00:49;;;;;;;19.30;11.60;;;;;;;7.86;88.95;98810.16;108221;1281;21983;-66
2024/01/16 01:03:14;;;;;;;25.60;12.60;;;;;;;7.84;88.82;98808.83;108250;1287;21996;-63
2024/01/16 01:05:40;;;;;;;22.00;11.80;;;;;;;7.83;88.82;98803.09;108345;1282;21990;-64
2024/01/16 01:08:06;;;;;;;17.40;10.80;;;;;;;7.82;88.79;98798.04;108145;1287;22026;-66
2024/01/16 01:10:31;;;;;;;21.40;12.70;;;;;;;7.78;89.53;98796.58;108136;1281;22069;-64
2024/01/16 01:12:57;;;;;;;21.60;12.40;;;;;;;7.75;88.98;98793.51;108096;1274;21987;-66
2024/01/16 01:15:23;;;;;;;23.20;12.70;;;;;;;7.74;88.71;98798.94;108208;1280;21990;-65
2024/01/16 01:17:49;;;;;;;24.00;12.50;;;;;;;7.73;88.51;98805.27;108246;1287;21984;-64
2024/01/16 01:20:14;;;;;;;18.80;11.50;;;;;;;7.71;88.46;98800.08;108254;1276;21999;-64
2024/01/16 01:22:40;;;;;;;23.60;12.40;;;;;;;7.70;88.28;98805.17;108172;1286;21987;-63
2024/01/16 01:25:06;;;;;;;19.80;11.80;;;;;;;7.68;88.20;98809.58;108214;1285;21989;-64
2024/01/16 01:27:32;;;;;;;19.30;11.50;;;;;;;7.66;88.28;98811.05;108230;1281;23746;-62
2024/01/16 01:29:58;;;;;;;21.40;11.70;;;;;;;7.65;88.21;98820.84;108096;1283;22249;-64
2024/01/16 01:32:26;;;;;;;21.40;12.20;;;;;;;7.63;88.23;98817.04;108157;1284;21990;-64
2024/01/16 01:34:52;;;;;;;19.60;11.90;;;;;;;7.60;88.08;98817.29;108146;1284;21988;-64
2024/01/16 01:37:18;;;;;;;21.40;12.00;;;;;;;7.59;88.13;98813.82;108263;1280;21989;-61
2024/01/16 01:39:43;;;;;;;22.70;12.20;;;;;;;7.56;88.37;98813.90;108091;1286;24318;-62
2024/01/16 01:42:09;;;;;;;20.40;12.40;;;;;;;7.54;88.31;98813.42;108110;1278;21983;-62
2024/01/16 01:44:34;;;;;;;20.30;12.00;;;;;;;7.53;88.35;98809.44;108137;1275;21987;-65
2024/01/16 01:47:00;;;;;;;18.50;12.10;;;;;;;7.52;88.38;98803.34;108296;1286;22024;-63
2024/01/16 01:49:26;;;;;;;19.70;12.20;;;;;;;7.54;88.48;98805.40;108148;1286;21993;-64
2024/01/16 01:51:51;;;;;;;21.90;12.90;;;;;;;7.54;88.57;98810.10;108167;1283;21984;-63
2024/01/16 01:54:17;;;;;;;23.70;12.80;;;;;;;7.51;88.36;98813.14;107906;1286;21983;-63
2024/01/16 01:56:44;;;;;;;23.00;13.40;;;;;;;7.48;88.20;98810.09;108117;1286;21983;-64
2024/01/16 01:59:09;;;;;;;20.20;12.30;;;;;;;7.44;88.22;98822.57;108281;1286;21990;-63
2024/01/16 02:01:35;;;;;;;20.40;12.40;;;;;;;7.40;88.07;98828.79;108101;1286;23767;-62
2024/01/16 02:04:00;;;;;;;18.30;11.40;;;;;;;7.38;88.26;98830.22;108140;1286;21998;-62
2024/01/16 02:06:29;;;;;;;21.50;12.00;;;;;;;7.36;88.45;98831.32;107963;1280;21970;-62
2024/01/16 02:08:54;;;;;;;22.60;13.10;;;;;;;7.30;89.41;98831.46;108147;1280;21986;-65
2024/01/16 02:11:20;;;;;;;22.30;13.10;;;;;;;7.24;90.10;98831.42;108290;1284;22050;-66
2024/01/16 02:13:46;;;;;;;21.80;13.60;;;;;;;7.22;89.83;98829.21;108300;1286;21987;-65
2024/01/16 02:16:21;;;;;;;22.90;12.50;;;;;;;7.19;89.39;98827.71;108151;1283;21989;-65
2024/01/16 02:18:47;;;;;;;20.30;12.40;;;;;;;7.14;89.26;98825.20;107404;1285;1002296;-65
2024/01/16 02:21:17;;;;;;;22.90;12.10;;;;;;;7.11;89.33;98820.20;108198;1277;21994;-65
2024/01/16 02:23:43;;;;;;;21.40;12.30;;;;;;;7.09;89.56;98814.33;108249;1277;21999;-62
2024/01/16 02:26:08;;;;;;;20.30;12.60;;;;;;;7.03;90.73;98813.77;108163;1280;23357;-64
2024/01/16 02:28:34;;;;;;;24.50;13.00;;;;;;;7.03;90.45;98809.23;108163;1276;21993;-66
2024/01/16 02:30:59;;;;;;;23.30;13.10;;;;;;;7.02;90.94;98809.27;108260;1286;21987;-63
2024/01/16 02:33:25;;;;;;;21.90;13.10;;;;;;;6.95;92.36;98807.67;108192;1286;23451;-65
2024/01/16 02:35:50;;;;;;;21.10;13.00;;;;;;;6.97;92.14;98803.60;108155;1286;21987;-65
2024/01/16 02:38:16;;;;;;;19.70;12.10;;;;;;;7.01;90.97;98810.16;108267;1286;21992;-65
2024/01/16 02:40:41;;;;;;;21.10;12.60;;;;;;;6.99;91.53;98805.48;108118;1286;22782;-65
2024/01/16 02:43:07;;;;;;;21.80;13.30;;;;;;;6.98;90.91;98807.25;108118;1286;21995;-65
2024/01/16 02:45:33;;;;;;;22.50;12.80;;;;;;;6.98;90.36;98812.64;108125;1286;21979;-61
2024/01/16 02:47:59;;;;;;;26.20;12.50;;;;;;;6.99;90.00;98815.59;108166;1277;21999;-63
2024/01/16 02:50:24;;;;;;;20.80;12.40;;;;;;;6.98;90.00;98822.23;108100;1286;23618;-61
2024/01/16 02:52:50;;;;;;;19.70;12.20;;;;;;;6.98;90.11;98826.24;108111;1280;22038;-61
2024/01/16 02:55:16;;;;;;;22.00;13.80;;;;;;;6.98;89.80;98832.19;108134;1274;21994;-64
2024/01/16 02:57:41;;;;;;;24.70;13.70;;;;;;;6.96;89.72;98831.20;108202;1273;21993;-64
2024/01/16 03:00:08;;;;;;;23.70;13.20;;;;;;;6.95;89.66;98840.27;108165;1274;21985;-65
2024/01/16 03:02:34;;;;;;;20.60;12.90;;;;;;;6.95;89.84;98844.11;108197;1286;21986;-65
2024/01/16 03:04:59;;;;;;;20.40;13.10;;;;;;;6.94;90.04;98844.31;108217;1284;21993;-62
2024/01/16 03:07:25;;;;;;;19.80;12.30;;;;;;;6.94;89.73;98845.19;108064;1286;21996;-64
2024/01/16 03:09:51;;;;;;;21.80;13.30;;;;;;;6.92;90.05;98841.91;108091;1286;21985;-64
2024/01/16 03:12:19;;;;;;;21.20;12.20;;;;;;;6.89;89.99;98840.05;108076;1279;21990;-63
2024/01/16 03:14:45;;;;;;;21.20;12.70;;;;;;;6.88;89.73;98835.04;108302;1286;21989;-63
2024/01/16 03:17:10;;;;;;;20.90;12.40;;;;;;;6.86;89.75;98838.55;108152;1280;22142;-63
2024/01/16 03:19:36;;;;;;;20.20;12.00;;;;;;;6.84;89.67;98839.44;108084;1283;21992;-65
2024/01/16 03:22:03;;;;;;;23.90;12.60;;;;;;;6.82;89.51;98837.94;107889;1283;21993;-64
2024/01/16 03:24:29;;;;;;;20.30;12.30;;;;;;;6.78;89.21;98839.59;108018;1274;21982;-64
2024/01/16 03:26:54;;;;;;;17.70;11.30;;;;;;;6.76;89.06;98838.77;108141;1277;22006;-63
2024/01/16 03:29:20;;;;;;;22.40;12.60;;;;;;;6.71;89.25;98832.94;108117;1280;22000;-65
2024/01/16 03:31:46;;;;;;;20.30;11.90;;;;;;;6.66;89.17;98828.34;108113;1280;21991;-65
2024/01/16 03:34:12;;;;;;;18.30;11.40;;;;;;;6.62;89.07;98824.60;108051;1283;22000;-65
2024/01/16 03:36:37;;;;;;;20.00;11.60;;;;;;;6.57;89.02;98824.70;108031;1288;21997;-64
2024/01/16 03:39:03;;;;;;;18.10;10.60;;;;;;;6.51;88.83;98829.16;108067;1288;21990;-65
2024/01/16 03:41:29;;;;;;;18.60;11.60;;;;;;;6.46;88.74;98831.70;108068;1282;22106;-65
2024/01/16 03:43:56;;;;;;;18.60;11.70;;;;;;;6.41;88.93;98824.52;108082;1288;22001;-65
2024/01/16 03:46:22;;;;;;;21.70;12.50;;;;;;;6.35;88.76;98827.93;108142;1276;21995;-64
2024/01/16 03:48:48;;;;;;;22.30;13.10;;;;;;;6.27;89.27;98821.47;108098;1287;22015;-64
2024/01/16 03:51:17;;;;;;;19.20;12.20;;;;;;;6.22;89.28;98819.65;108180;1288;22007;-65
2024/01/16 03:53:43;;;;;;;18.80;12.20;;;;;;;6.19;89.59;98823.72;108099;1288;21993;-65
2024/01/16 03:56:09;;;;;;;17.30;10.60;;;;;;;6.18;89.28;98831.41;108135;1283;22181;-65
2024/01/16 03:58:34;;;;;;;22.10;12.20;;;;;;;6.16;89.44;98836.30;108171;1287;22003;-66
2024/01/16 04:01:00;;;;;;;21.70;12.90;;;;;;;6.13;89.43;98831.31;108139;1288;21995;-64
2024/01/16 04:03:25;;;;;;;22.70;13.00;;;;;;;6.13;89.50;98831.85;108088;1278;21988;-66
2024/01/16 04:05:51;;;;;;;26.80;16.00;;;;;;;6.10;90.20;98841.64;108211;1283;21986;-65
2024/01/16 04:08:16;;;;;;;38.00;20.60;;;;;;;6.07;90.38;98841.01;108093;1277;22034;-64
2024/01/16 04:10:42;;;;;;;48.70;25.60;;;;;;;6.03;90.68;98836.36;108069;1288;21990;-63
2024/01/16 04:13:08;;;;;;;84.60;37.50;;;;;;;6.03;90.73;98844.91;108112;1288;22736;-64
2024/01/16 04:15:33;;;;;;;121.90;50.80;;;;;;;6.01;91.01;98859.56;108097;1286;21993;-65
2024/01/16 04:17:59;;;;;;;98.80;45.40;;;;;;;6.00;91.06;98861.66;108081;1276;21993;-65
2024/01/16 04:20:25;;;;;;;53.60;27.40;;;;;;;6.04;90.53;98861.78;108125;1288;21990;-63
2024/01/16 04:22:51;;;;;;;38.30;20.70;;;;;;;6.06;90.71;98870.79;108086;1286;21983;-66
2024/01/16 04:25:16;;;;;;;42.30;22.10;;;;;;;6.10;90.66;98884.66;108079;1288;21990;-65
2024/01/16 04:27:42;;;;;;;43.80;23.10;;;;;;;6.12;90.85;98889.52;107351;1288;1002263;-63
2024/01/16 04:30:09;;;;;;;49.80;23.10;;;;;;;6.12;90.90;98894.90;108068;1280;21998;-64
2024/01/16 04:32:34;;;;;;;30.70;16.50;;;;;;;6.10;91.04;98894.23;108084;1285;21989;-64
2024/01/16 04:35:03;;;;;;;21.70;12.30;;;;;;;6.10;91.25;98892.66;108039;1286;21997;-64
2024/01/16 04:37:29;;;;;;;21.50;12.90;;;;;;;6.11;91.14;98894.05;108122;1280;23682;-65
2024/01/16 04:39:54;;;;;;;19.60;11.50;;;;;;;6.12;91.17;98895.59;108274;1278;21990;-66
2024/01/16 04:42:20;;;;;;;17.90;10.70;;;;;;;6.11;91.49;98893.34;108307;1274;21992;-64
2024/01/16 04:44:45;;;;;;;15.20;9.60;;;;;;;6.06;92.35;98891.53;108258;1286;21996;-64
2024/01/16 04:47:11;;;;;;;16.30;10.60;;;;;;;5.99;93.81;98887.27;108074;1286;22022;-65
2024/01/16 04:49:37;;;;;;;15.30;9.50;;;;;;;5.99;93.99;98890.23;107338;1284;1002355;-66
2024/01/16 04:52:03;;;;;;;14.10;9.40;;;;;;;5.98;94.10;98896.52;108080;1286;21986;-64
2024/01/16 04:54:29;;;;;;;15.10;10.20;;;;;;;5.97;94.10;98905.58;108230;1286;21953;-65
2024/01/16 04:56:54;;;;;;;12.90;7.50;;;;;;;6.00;94.22;98911.11;108215;1286;21997;-65
2024/01/16 04:59:20;;;;;;;13.50;8.10;;;;;;;6.00;94.41;98919.48;107340;1283;1002545;-65
2024/01/16 05:01:45;;;;;;;9.70;6.40;;;;;;;6.02;94.33;98930.41;107502;1286;1002244;-64
2024/01/16 05:04:11;;;;;;;10.50;6.60;;;;;;;5.99;95.44;98927.66;108101;1286;22062;-63
2024/01/16 05:06:37;;;;;;;9.90;5.90;;;;;;;6.02;95.41;98926.39;108111;1286;21984;-63
2024/01/16 05:09:03;;;;;;;11.40;6.90;;;;;;;6.03;95.45;98919.78;108222;1286;21989;-64
2024/01/16 05:11:28;;;;;;;9.50;6.50;;;;;;;6.01;96.09;98912.31;108240;1280;21985;-62
2024/01/16 05:13:58;;;;;;;11.90;6.70;;;;;;;6.01;95.88;98913.54;108288;1274;21994;-63
2024/01/16 05:16:24;;;;;;;10.40;7.60;;;;;;;6.03;95.70;98919.95;108298;1286;21990;-61
2024/01/16 05:18:50;;;;;;;9.90;6.30;;;;;;;6.06;95.31;98932.80;108116;1277;21999;-62
2024/01/16 05:21:15;;;;;;;12.70;7.40;;;;;;;6.03;95.83;98941.89;108117;1284;21998;-65
2024/01/16 05:23:41;;;;;;;11.80;7.70;;;;;;;6.08;95.14;98944.59;108123;1280;21990;-63
2024/01/16 05:26:07;;;;;;;14.10;7.70;;;;;;;6.15;94.47;98949.55;108114;1286;22003;-62
2024/01/16 05:28:32;;;;;;;11.00;6.90;;;;;;;6.14;94.50;98956.51;108097;1283;22077;-65
2024/01/16 05:30:59;;;;;;;12.60;7.80;;;;;;;6.17;93.97;98953.67;108139;1284;22079;-62
2024/01/16 05:33:24;;;;;;;19.10;6.90;;;;;;;6.21;93.65;98954.65;108165;1283;21990;-65
2024/01/16 05:35:50;;;;;;;17.20;7.80;;;;;;;6.27;93.49;98958.56;108065;1280;22454;-62
2024/01/16 05:38:16;;;;;;;14.90;7.70;;;;;;;6.30;93.23;98962.34;108124;1281;22008;-65
2024/01/16 05:40:42;;;;;;;10.10;6.30;;;;;;;6.34;92.68;98963.67;108040;1285;23048;-64
2024/01/16 05:43:07;;;;;;;11.80;6.90;;;;;;;6.36;91.97;98957.02;108127;1281;21982;-65
2024/01/16 05:45:33;;;;;;;13.00;8.10;;;;;;;6.36;91.78;98959.79;108296;1284;21996;-62
2024/01/16 05:47:59;;;;;;;10.80;6.60;;;;;;;6.32;91.69;98968.25;108166;1286;21992;-65
2024/01/16 05:50:24;;;;;;;11.80;7.10;;;;;;;6.29;91.54;98980.66;108285;1283;21979;-66
2024/01/16 05:52:50;;;;;;;11.20;6.70;;;;;;;6.27;91.26;98982.08;108235;1274;21991;-62
2024/01/16 05:55:15;;;;;;;11.30;6.90;;;;;;;6.26;91.25;98980.00;108265;1277;21987;-63
2024/01/16 05:57:43;;;;;;;10.90;6.80;;;;;;;6.23;91.41;98990.84;108257;1283;21992;-61
2024/01/16 06:00:10;;;;;;;12.00;7.00;;;;;;;6.22;91.00;99003.40;108136;1286;23385;-62
2024/01/16 06:02:35;;;;;;;12.80;7.60;;;;;;;6.19;91.23;99011.30;108115;1286;21986;-64
2024/01/16 06:05:02;;;;;;;11.80;6.40;;;;;;;6.13;91.45;99021.51;108074;1286;21986;-64
2024/01/16 06:07:28;;;;;;;13.20;7.70;;;;;;;6.14;91.51;99033.00;108299;1284;21986;-62
2024/01/16 06:09:54;;;;;;;11.10;6.50;;;;;;;6.13;91.67;99038.05;108301;1286;21988;-62
2024/01/16 06:12:20;;;;;;;11.90;7.70;;;;;;;6.08;92.16;99034.98;108234;1286;22000;-62
2024/01/16 06:14:45;;;;;;;12.60;7.00;;;;;;;6.07;92.50;99048.24;108134;1283;21992;-64
2024/01/16 06:17:11;;;;;;;14.00;7.80;;;;;;;6.06;92.68;99052.77;108113;1280;22003;-64
2024/01/16 06:19:38;;;;;;;12.60;7.40;;;;;;;6.06;92.93;99062.02;108179;1286;23654;-62
2024/01/16 06:22:04;;;;;;;10.70;6.80;;;;;;;6.11;92.61;99068.90;108203;1281;21992;-66
2024/01/16 06:24:36;;;;;;;13.40;7.70;;;;;;;6.12;92.57;99075.34;108107;1286;23771;-63
2024/01/16 06:27:05;;;;;;;12.30;7.70;;;;;;;6.15;92.07;99073.02;108176;1286;21985;-62
2024/01/16 06:29:31;;;;;;;10.60;7.00;;;;;;;6.13;92.37;99078.62;108140;1286;21995;-62
2024/01/16 06:31:56;;;;;;;12.80;7.60;;;;;;;6.14;92.34;99091.16;108111;1277;21997;-62
2024/01/16 06:34:22;;;;;;;13.10;7.30;;;;;;;6.16;91.99;99096.88;108095;1286;22029;-66
2024/01/16 06:36:47;;;;;;;13.40;8.60;;;;;;;6.13;92.29;99108.25;108148;1283;21990;-62
2024/01/16 06:39:13;;;;;;;14.20;7.30;;;;;;;6.06;92.30;99116.52;108161;1286;21990;-61
2024/01/16 06:41:42;;;;;;;13.40;7.30;;;;;;;6.07;92.25;99116.51;108151;1286;21980;-67
2024/01/16 06:44:08;;;;;;;11.00;6.50;;;;;;;6.09;92.15;99119.96;108090;1286;22045;-63
2024/01/16 06:46:34;;;;;;;10.50;5.90;;;;;;;6.13;91.62;99128.10;107369;1286;1002240;-63
2024/01/16 06:49:00;;;;;;;11.30;6.80;;;;;;;6.13;91.47;99132.61;108241;1286;22473;-64
2024/01/16 06:51:27;;;;;;;10.80;6.30;;;;;;;6.11;91.31;99140.31;108117;1284;22023;-63
2024/01/16 06:53:53;;;;;;;15.40;6.90;;;;;;;6.11;91.01;99143.62;108112;1282;21987;-63
2024/01/16 06:56:18;;;;;;;10.70;6.50;;;;;;;6.09;91.08;99146.25;108147;1286;22011;-67
2024/01/16 06:58:44;;;;;;;10.30;6.10;;;;;;;6.09;90.68;99145.04;108103;1277;21995;-68
2024/01/16 07:01:09;;;;;;;8.70;5.60;;;;;;;6.05;90.66;99150.83;108208;1286;21992;-68
2024/01/16 07:03:35;;;;;;;10.80;5.80;;;;;;;6.02;90.49;99160.80;108224;1286;21987;-67
2024/01/16 07:06:02;;;;;;;9.80;6.00;;;;;;;6.02;90.15;99168.11;108187;1286;21973;-63
2024/01/16 07:08:28;;;;;;;9.70;5.60;;;;;;;6.03;89.86;99175.23;108138;1277;22028;-65
2024/01/16 07:10:53;;;;;;;11.10;6.10;;;;;;;6.02;90.02;99182.40;108146;1286;21997;-64
2024/01/16 07:13:19;;;;;;;9.50;6.00;;;;;;;6.04;89.91;99180.63;108124;1286;21984;-65
2024/01/16 07:15:45;;;;;;;15.20;7.10;;;;;;;6.07;89.51;99180.94;108083;1277;21991;-62
2024/01/16 07:18:10;;;;;;;10.70;6.60;;;;;;;6.08;89.12;99192.60;108169;1286;22002;-65
2024/01/16 07:20:36;;;;;;;11.50;6.30;;;;;;;6.06;88.76;99205.34;108286;1281;21996;-62
2024/01/16 07:23:02;;;;;;;12.70;7.50;;;;;;;6.08;88.57;99213.84;108166;1286;22029;-65
2024/01/16 07:25:28;;;;;;;11.50;6.90;;;;;;;6.13;88.88;99222.67;108046;1286;21993;-62
2024/01/16 07:27:54;;;;;;;12.70;6.90;;;;;;;6.20;89.05;99215.26;108204;1286;22006;-62
2024/01/16 07:30:19;;;;;;;11.70;7.20;;;;;;;6.30;89.14;99214.42;108128;1280;21988;-62
2024/01/16 07:32:45;;;;;;;11.20;6.90;;;;;;;6.39;89.38;99214.83;108082;1286;22168;-65
2024/01/16 07:35:10;;;;;;;17.40;7.60;;;;;;;6.47;89.54;99220.98;108109;1288;23742;-62
2024/01/16 07:37:36;;;;;;;14.00;7.60;;;;;;;6.57;89.48;99224.00;108063;1284;23641;-63
2024/01/16 07:40:05;;;;;;;14.20;7.30;;;;;;;6.66;89.43;99222.81;108123;1287;21998;-64
2024/01/16 07:42:34;;;;;;;10.70;6.70;;;;;;;6.76;89.84;99226.50;108228;1286;22273;-66
2024/01/16 07:45:09;;;;;;;14.50;6.80;;;;;;;6.86;89.79;99218.67;108053;1283;155300;-63
2024/01/16 07:47:36;;;;;;;9.50;6.70;;;;;;;6.95;89.69;99215.56;108147;1288;21988;-63
2024/01/16 07:50:01;;;;;;;11.70;7.30;;;;;;;7.04;89.54;99223.63;108133;1288;22050;-63
2024/01/16 07:52:27;;;;;;;12.30;6.70;;;;;;;7.11;89.25;99222.63;108074;1284;22037;-63
2024/01/16 07:54:53;;;;;;;14.10;6.60;;;;;;;7.15;89.11;99217.16;108087;1285;21990;-63
2024/01/16 07:57:18;;;;;;;11.20;6.50;;;;;;;7.19;88.80;99224.43;108114;1288;21988;-66
2024/01/16 07:59:44;;;;;;;9.40;6.00;;;;;;;7.25;88.54;99238.98;108113;1283;21995;-63
2024/01/16 08:02:10;;;;;;;10.70;6.40;;;;;;;7.29;88.19;99257.75;108108;1288;21986;-64
2024/01/16 08:04:35;;;;;;;10.40;6.70;;;;;;;7.31;87.78;99267.14;108252;1288;22028;-64
2024/01/16 08:07:02;;;;;;;10.40;6.20;;;;;;;7.33;87.81;99268.85;108099;1284;21986;-68
2024/01/16 08:09:27;;;;;;;9.90;6.60;;;;;;;7.35;87.70;99268.30;108128;1289;21992;-64
2024/01/16 08:11:53;;;;;;;10.30;6.30;;;;;;;7.37;87.71;99267.39;108128;1288;21965;-64
2024/01/16 08:14:18;;;;;;;12.80;7.50;;;;;;;7.44;87.92;99270.06;108108;1288;21999;-70
2024/01/16 08:16:44;;;;;;;9.40;6.00;;;;;;;7.51;87.95;99277.27;107780;1286;21993;-70
2024/01/16 08:19:10;;;;;;;10.90;6.20;;;;;;;7.59;88.21;99284.81;108123;1289;22000;-66
2024/01/16 08:21:36;;;;;;;12.90;6.70;;;;;;;7.64;87.73;99284.73;107998;1288;22004;-70
2024/01/16 08:24:02;;;;;;;14.40;7.50;;;;;;;7.66;87.38;99287.14;108091;1283;23612;-65
2024/01/16 08:26:28;;;;;;;12.40;6.70;;;;;;;7.72;87.48;99288.77;108069;1288;21993;-70
2024/01/16 08:28:54;;;;;;;12.60;6.60;;;;;;;7.77;87.17;99304.23;108112;1287;21999;-65
2024/01/16 08:31:20;;;;;;;14.30;6.80;;;;;;;7.80;86.78;99315.70;108125;1286;22045;-71
2024/01/16 08:33:47;;;;;;;11.10;6.70;;;;;;;7.83;85.91;99324.39;108096;1286;21997;-64
2024/01/16 08:36:14;;;;;;;11.50;6.50;;;;;;;7.85;85.76;99329.07;108045;1281;21988;-69
2024/01/16 08:38:40;;;;;;;11.90;6.70;;;;;;;7.92;85.83;99331.73;108139;1286;24069;-65
2024/01/16 08:41:06;;;;;;;11.30;7.30;;;;;;;8.00;86.45;99340.84;108145;1280;22457;-68
2024/01/16 08:43:35;;;;;;;10.70;7.00;;;;;;;8.09;86.17;99342.61;108109;1286;21999;-67
2024/01/16 08:46:01;;;;;;;11.10;6.70;;;;;;;8.14;85.56;99341.81;108112;1286;21989;-66
2024/01/16 08:48:26;;;;;;;12.90;7.60;;;;;;;8.11;84.19;99342.41;108127;1286;21992;-67
2024/01/16 08:50:54;;;;;;;16.20;10.30;;;;;;;8.18;84.81;99338.08;108100;1280;22028;-67
2024/01/16 08:53:22;;;;;;;12.20;7.50;;;;;;;8.20;84.22;99341.70;108169;1286;22006;-64
2024/01/16 08:55:48;;;;;;;15.60;8.90;;;;;;;8.22;84.18;99341.83;108215;1286;21993;-64
2024/01/16 08:58:14;;;;;;;27.10;14.80;;;;;;;8.23;83.50;99352.48;108217;1275;21990;-66
2024/01/16 09:00:40;;;;;;;28.10;16.60;;;;;;;8.24;83.16;99357.52;108208;1273;21990;-64
2024/01/16 09:03:05;;;;;;;22.90;14.10;;;;;;;8.25;83.24;99364.14;108372;1284;24308;-66
2024/01/16 09:05:31;;;;;;;14.40;10.70;;;;;;;8.30;83.31;99365.98;108298;1286;21986;-64
2024/01/16 09:07:56;;;;;;;16.80;10.30;;;;;;;8.34;83.64;99368.34;108044;1286;21992;-65
2024/01/16 09:10:22;;;;;;;16.60;9.90;;;;;;;8.37;83.33;99368.13;108117;1286;21993;-64
2024/01/16 09:12:48;;;;;;;15.90;10.80;;;;;;;8.33;81.97;99371.17;108151;1286;21994;-63
2024/01/16 09:15:14;;;;;;;25.80;16.40;;;;;;;8.32;82.05;99373.45;108119;1284;21987;-65
2024/01/16 09:17:40;;;;;;;22.40;13.90;;;;;;;8.35;82.55;99376.20;108116;1286;22167;-65
2024/01/16 09:20:07;;;;;;;20.30;13.90;;;;;;;8.39;82.68;99382.94;108068;1286;21995;-64
2024/01/16 09:22:33;;;;;;;25.50;16.50;;;;;;;8.44;82.46;99382.48;108087;1286;21991;-63
2024/01/16 09:24:59;;;;;;;21.20;13.80;;;;;;;8.47;81.68;99386.98;108046;1286;21995;-64
2024/01/16 09:27:24;;;;;;;16.10;11.10;;;;;;;8.46;81.01;99390.50;107367;1286;1002283;-64
2024/01/16 09:29:51;;;;;;;11.80;7.80;;;;;;;8.47;81.24;99393.63;107315;1284;1002426;-63
2024/01/16 09:32:16;;;;;;;11.80;7.60;;;;;;;8.52;81.51;99397.23;108250;1286;22001;-64
2024/01/16 09:34:42;;;;;;;13.40;8.90;;;;;;;8.41;79.90;99398.83;108271;1286;21996;-62
2024/01/16 09:37:08;;;;;;;11.10;7.60;;;;;;;8.44;80.65;99403.83;108187;1286;21989;-62
2024/01/16 09:39:34;;;;;;;22.10;13.90;;;;;;;8.45;80.98;99412.54;108113;1286;21993;-62
2024/01/16 09:42:03;;;;;;;51.80;28.90;;;;;;;8.45;80.61;99423.73;108093;1286;21990;-62
2024/01/16 09:44:29;;;;;;;52.00;30.70;;;;;;;8.47;80.59;99423.53;108161;1273;21990;-62
2024/01/16 09:46:55;;;;;;;49.40;28.50;;;;;;;8.48;80.22;99424.91;107324;1281;1002572;-62
2024/01/16 09:49:21;;;;;;;25.30;16.10;;;;;;;8.48;79.76;99421.08;108164;1286;22029;-61
2024/01/16 09:51:47;;;;;;;19.40;14.00;;;;;;;8.46;79.26;99421.80;108147;1286;22080;-62
2024/01/16 09:54:12;;;;;;;17.90;11.80;;;;;;;8.41;78.76;99422.77;108320;1286;21992;-61
2024/01/16 09:56:41;;;;;;;16.90;10.30;;;;;;;8.41;78.79;99425.02;108133;1286;21993;-61
2024/01/16 09:59:07;;;;;;;17.70;10.70;;;;;;;8.49;79.48;99424.38;108180;1286;23131;-62
2024/01/16 10:01:33;;;;;;;16.60;10.40;;;;;;;8.53;79.47;99419.08;107983;1283;21991;-61
2024/01/16 10:03:58;;;;;;;15.40;9.70;;;;;;;8.53;78.93;99419.77;108284;1284;21989;-60
2024/01/16 10:06:24;;;;;;;14.30;9.90;;;;;;;8.56;79.42;99424.25;108050;1286;21993;-62
2024/01/16 10:08:50;;;;;;;15.30;10.20;;;;;;;8.59;79.37;99431.71;107874;1286;22220;-60
2024/01/16 10:11:15;;;;;;;17.60;10.70;;;;;;;8.61;78.92;99435.17;108167;1286;22814;-62
2024/01/16 10:13:41;;;;;;;19.80;13.20;;;;;;;8.65;79.35;99442.62;108083;1279;21987;-61
2024/01/16 10:16:07;;;;;;;15.00;10.40;;;;;;;8.69;79.54;99448.13;107838;1286;22021;-62
2024/01/16 10:18:33;;;;;;;21.30;13.90;;;;;;;8.66;78.96;99451.16;108124;1286;22003;-62
2024/01/16 10:20:59;;;;;;;19.10;12.10;;;;;;;8.65;78.39;99454.33;108108;1286;22046;-62
2024/01/16 10:23:29;;;;;;;17.00;12.30;;;;;;;8.61;77.72;99457.73;108203;1286;21989;-62
2024/01/16 10:26:24;;;;;;;19.10;11.60;;;;;;;8.57;77.50;99459.02;108073;1281;22094;-61
2024/01/16 10:28:50;;;;;;;22.20;15.30;;;;;;;8.57;77.58;99466.38;108041;1283;23048;-61
2024/01/16 10:31:15;;;;;;;22.50;16.30;;;;;;;8.58;77.58;99471.96;107889;1286;22284;-62
2024/01/16 10:33:41;;;;;;;24.30;17.60;;;;;;;8.60;77.67;99470.35;108025;1287;21997;-63
2024/01/16 10:36:14;;;;;;;24.20;15.90;;;;;;;8.62;77.36;99477.66;108153;1284;21990;-62
2024/01/16 10:38:41;;;;;;;27.80;18.70;;;;;;;8.64;77.31;99481.46;108250;1282;23155;-61
2024/01/16 10:41:11;;;;;;;22.70;16.30;;;;;;;8.67;77.55;99481.05;108318;1287;22027;-62
2024/01/16 10:43:37;;;;;;;21.40;12.80;;;;;;;8.75;78.39;99480.73;108172;1287;21976;-61
2024/01/16 10:46:16;;;;;;;29.20;18.70;;;;;;;8.76;77.12;99482.99;107383;1287;1002584;-62
2024/01/16 10:49:01;;;;;;;46.00;29.00;;;;;;;8.69;75.72;99489.94;108152;1284;21988;-62
2024/01/16 10:51:27;;;;;;;54.20;31.90;;;;;;;8.69;75.73;99501.30;108137;1284;22030;-61
2024/01/16 10:53:59;;;;;;;42.00;25.80;;;;;;;8.73;75.65;99507.88;108233;1283;22462;-61
2024/01/16 10:56:26;;;;;;;25.10;17.10;;;;;;;8.79;75.86;99507.07;108154;1287;21998;-61
2024/01/16 10:58:58;;;;;;;29.30;19.10;;;;;;;8.83;75.75;99509.61;108153;1287;21993;-61
2024/01/16 11:01:24;;;;;;;31.50;19.10;;;;;;;8.86;75.38;99510.95;108132;1287;22046;-61
2024/01/16 11:03:50;;;;;;;20.00;13.90;;;;;;;8.91;75.53;99510.16;108092;1287;24037;-61
2024/01/16 11:06:17;;;;;;;24.90;15.60;;;;;;;9.01;76.02;99512.60;108360;1287;21988;-60
2024/01/16 11:08:46;;;;;;;25.10;15.70;;;;;;;9.06;74.67;99518.63;108100;1287;22005;-59
2024/01/16 11:11:11;;;;;;;24.80;16.40;;;;;;;9.11;74.62;99521.85;108144;1287;21988;-60
2024/01/16 11:13:37;;;;;;;27.90;16.90;;;;;;;9.11;73.89;99524.83;107874;1287;22027;-61